Flight Track Log - Related Links

Times and Time Zones

All times are in EDT time to prevent confusion due to time zone crossing. See the AAL1686 flight status page for this flight to view local times or setup timezone preferences in your user account.

Time Position Orientation Groundspeed Altitude Reporting Facility
EDT Latitude Longitude Course Direction KTS MPH feet Rate Location/Type
Wed 07:42:48 PM 33.9333 -118.4403 54° Northeast 167 192 1,700  Level Los Angeles Center
Wed 07:43:50 PM 33.9108 -118.5114 249° West 241 277 3,200 2,208 Climbing Los Angeles Center
Wed 07:44:00 PM 34.1285 -118.0764 59° Northeast  Level FlightAware Approximate
Wed 07:44:53 PM 33.8722 -118.6014 243° Southwest 280 322 6,300  Level Los Angeles Center
Wed 07:45:00 PM 34.1951 -117.9433 59° Northeast  Level FlightAware Approximate
Wed 07:45:54 PM 33.8103 -118.6061 184° South 269 310 8,900  Level Los Angeles Center
Wed 07:46:00 PM 34.2642 -117.8241 68° East  Level FlightAware Approximate
Wed 07:46:56 PM 33.8208 -118.5231 81° East 280 322 11,200  Level Los Angeles Center
Wed 07:47:00 PM 34.3327 -117.6970 55° Northeast  Level FlightAware Approximate
Wed 07:47:58 PM 33.9078 -118.4544 33° Northeast 328 377 13,100  Level Los Angeles Center
Wed 07:48:00 PM 34.4026 -117.5734 54° Northeast  Level FlightAware Approximate
Wed 07:49:00 PM 33.9761 -118.3603 49° Northeast 367 422 15,200  Level Los Angeles Center
Wed 07:50:02 PM 34.0364 -118.2528 56° Northeast 381 438 17,300 1,984 Climbing Los Angeles Center
Wed 07:51:04 PM 34.1006 -118.1411 55° Northeast 399 459 19,300 1,887 Climbing Los Angeles Center
Wed 07:52:06 PM 34.1653 -118.0258 56° Northeast 412 474 21,200 1,742 Climbing Los Angeles Center
Wed 07:53:08 PM 34.2322 -117.9078 56° Northeast 422 486 22,900 1,597 Climbing Los Angeles Center
Wed 07:54:10 PM 34.3000 -117.7858 56° Northeast 433 498 24,500 1,597 Climbing Los Angeles Center
Wed 07:55:12 PM 34.3828 -117.6381 56° Northeast 443 510 26,200 1,452 Climbing Los Angeles Center
Wed 07:56:14 PM 34.4431 -117.5275 57° Northeast 452 520 27,500 1,355 Climbing Los Angeles Center
Wed 07:57:16 PM 34.5125 -117.4003 56° Northeast 456 525 29,000 1,536 Climbing Los Angeles Center
Wed 07:58:19 PM 34.5961 -117.2500 56° Northeast 451 519 30,700 1,333 Climbing Los Angeles Center
Wed 07:59:22 PM 34.6642 -117.1244 57° Northeast 449 517 31,800 1,056 Climbing Los Angeles Center
Wed 08:00:24 PM 34.7319 -116.9994 57° Northeast 447 514 32,900 532 Climbing Los Angeles Center
Wed 08:01:26 PM 34.7986 -116.8758 57° Northeast 442 509 32,900  Level Los Angeles Center
Wed 08:02:28 PM 34.8794 -116.7294 56° Northeast 438 504 32,900  Level Los Angeles Center
Wed 08:03:30 PM 34.9458 -116.6058 57° Northeast 437 503 32,900  Level Los Angeles Center
Wed 08:04:32 PM 35.0258 -116.4964 48° Northeast 432 497 32,900  Level Los Angeles Center
Wed 08:05:35 PM 35.1106 -116.3911 45° Northeast 433 498 32,900  Level Los Angeles Center
Wed 08:06:37 PM 35.1944 -116.2869 45° Northeast 431 496 32,900  Level Los Angeles Center
Wed 08:07:39 PM 35.2800 -116.1794 46° Northeast 439 505 32,900  Level Los Angeles Center
Wed 08:08:41 PM 35.3792 -116.0528 46° Northeast 433 498 32,900  Level Los Angeles Center
Wed 08:09:43 PM 35.4631 -115.9461 46° Northeast 435 501 32,900 48 Level Los Angeles Center
Wed 08:10:45 PM 35.5503 -115.8428 44° Northeast 430 495 33,000 48 Climbing Los Angeles Center
Wed 08:11:47 PM 35.5997 -115.7019 67° East 459 528 33,000  Level Los Angeles Center
Wed 08:12:49 PM 35.6336 -115.5183 77° East 463 533 33,000  Level Los Angeles Center
Wed 08:13:51 PM 35.6628 -115.3669 77° East 461 531 33,000  Level Los Angeles Center
Wed 08:14:53 PM 35.6900 -115.2136 78° East 462 532 33,000 -48 Level Los Angeles Center
Wed 08:15:55 PM 35.7181 -115.0619 77° East 460 529 32,900 -44 Descending Los Angeles Center
Wed 08:17:10 PM 35.7439 -114.9125 78° East 454 522 32,900  Level Los Angeles Center
Wed 08:18:12 PM 35.7817 -114.6983 78° East 456 525 32,900 48 Level Los Angeles Center
Wed 08:19:14 PM 35.8078 -114.5469 78° East 456 525 33,000 48 Climbing Los Angeles Center
Wed 08:20:16 PM 35.8342 -114.3956 78° East 453 521 33,000  Level Los Angeles Center
Wed 08:21:18 PM 35.8611 -114.2431 78° East 455 524 33,000  Level Los Angeles Center
Wed 08:22:20 PM 35.8861 -114.0900 79° East 455 524 33,000  Level Los Angeles Center
Wed 08:23:23 PM 35.9125 -113.9358 78° East 459 528 33,000  Level Los Angeles Center
Wed 08:25:27 PM 35.9708 -113.5933 78° East 464 534 33,000  Level Los Angeles Center
Wed 08:26:29 PM 35.9967 -113.4378 78° East 463 533 33,000  Level Los Angeles Center
Wed 08:27:31 PM 36.0225 -113.2844 78° East 458 527 33,000 -48 Level Los Angeles Center
Wed 08:28:33 PM 36.0478 -113.1228 79° East 455 524 32,900  Descending Los Angeles Center
Wed 08:29:36 PM 36.0731 -112.9703 78° East 456 525 33,000 48 Climbing Los Angeles Center
Wed 08:30:38 PM 36.0969 -112.8153 79° East 459 528 33,000 -48 Level Los Angeles Center
Wed 08:31:40 PM 36.1319 -112.6328 77° East 457 526 32,900 -48 Descending Los Angeles Center
Wed 08:32:42 PM 36.1531 -112.4775 80° East 459 528 32,900  Level Los Angeles Center
Wed 08:33:56 PM 36.1797 -112.2908 80° East 462 532 32,900  Level Los Angeles Center
Wed 08:34:58 PM 36.2031 -112.1356 79° East 461 531 32,900 48 Level Los Angeles Center
Wed 08:36:01 PM 36.2275 -111.9806 79° East 461 531 33,000  Climbing Los Angeles Center
Wed 08:36:39 PM 36.2464 -111.8544 79° East 465 535 32,900  Descending Denver Center
Wed 08:37:41 PM 36.2706 -111.6975 79° East 466 536 33,000  Climbing Denver Center
Wed 08:38:55 PM 36.3417 -111.5408 61° Northeast 441 507 32,900  Descending Denver Center
Wed 08:39:57 PM 36.3967 -111.4036 63° Northeast 456 525 33,000 48 Climbing Denver Center
Wed 08:40:59 PM 36.4244 -111.2469 78° East 465 535 33,000 -49 Level Denver Center
Wed 08:42:00 PM 36.4539 -111.0961 76° East 457 526 32,900  Descending Denver Center
Wed 08:43:02 PM 36.4897 -110.9056 77° East 470 541 33,000  Climbing Denver Center
Wed 08:44:04 PM 36.5203 -110.7458 77° East 474 545 32,900 726 Descending Denver Center
Wed 08:45:06 PM 36.5478 -110.5897 78° East 469 540 34,500 968 Climbing Denver Center
Wed 08:46:08 PM 36.5756 -110.4364 77° East 461 531 34,900 244 Climbing Denver Center
Wed 08:47:09 PM 36.6019 -110.2819 78° East 460 529 35,000 49 Climbing Denver Center
Wed 08:48:11 PM 36.6306 -110.1183 78° East 466 536 35,000  Level Denver Center
Wed 08:49:13 PM 36.6625 -109.9417 77° East 468 539 35,000  Level Denver Center
Wed 08:50:15 PM 36.6883 -109.7908 78° East 465 535 35,000  Level Denver Center
Wed 08:51:16 PM 36.7189 -109.6114 78° East 471 542 35,000  Level Denver Center
Wed 08:52:18 PM 36.7450 -109.4578 78° East 472 543 35,000  Level Denver Center
Wed 08:53:20 PM 36.7722 -109.3028 78° East 475 547 35,000  Level Denver Center
Wed 08:54:21 PM 36.8022 -109.1206 78° East 478 550 35,000 -49 Level Denver Center
Wed 08:55:23 PM 36.8286 -108.9625 78° East 482 555 34,900 -48 Descending Denver Center
Wed 08:56:25 PM 36.8583 -108.7803 78° East 479 551 34,900 49 Level Denver Center
Wed 08:57:26 PM 36.8844 -108.6228 78° East 480 552 35,000  Climbing Denver Center
Wed 08:58:28 PM 36.9097 -108.4642 79° East 483 556 34,900  Descending Denver Center
Wed 08:59:29 PM 36.9394 -108.2775 79° East 488 562 35,000  Climbing Denver Center
Wed 09:00:31 PM 36.9647 -108.1178 79° East 489 563 34,900  Descending Denver Center
Wed 09:01:33 PM 36.9933 -107.9325 79° East 485 558 35,000  Climbing Denver Center
Wed 09:02:34 PM 37.0189 -107.7708 79° East 491 565 34,900  Descending Denver Center
Wed 09:03:36 PM 37.0431 -107.6081 79° East 494 568 35,000  Climbing Denver Center
Wed 09:04:38 PM 37.0719 -107.4197 79° East 493 567 34,900  Descending Denver Center
Wed 09:05:39 PM 37.0956 -107.2581 80° East 494 568 35,000 49 Climbing Denver Center
Wed 09:06:41 PM 37.1236 -107.0681 79° East 496 571 35,000  Level Denver Center
Wed 09:07:42 PM 37.1478 -106.9022 80° East 502 578 35,000  Level Denver Center
Wed 09:08:44 PM 37.1756 -106.7069 80° East 509 586 35,000  Level Denver Center
Wed 09:09:46 PM 37.2011 -106.5403 79° East 509 586 35,000  Level Denver Center
Wed 09:10:47 PM 37.2222 -106.3794 81° East 492 566 35,000  Level Denver Center
Wed 09:12:01 PM 37.2478 -106.1889 80° East 494 568 35,000  Level Denver Center
Wed 09:13:02 PM 37.2717 -105.9933 81° East 504 580 35,000  Level Denver Center
Wed 09:14:04 PM 37.2831 -105.7894 86° East 520 598 35,000  Level Denver Center
Wed 09:15:06 PM 37.2953 -105.6181 85° East 518 596 35,000  Level Denver Center
Wed 09:16:07 PM 37.3078 -105.4172 85° East 517 595 35,000  Level Denver Center
Wed 09:17:09 PM 37.3167 -105.2436 86° East 520 598 35,000  Level Denver Center
Wed 09:18:10 PM 37.3267 -105.0478 86° East 539 620 35,000 -49 Level Denver Center
Wed 09:19:12 PM 37.3358 -104.8600 86° East 539 620 34,900  Descending Denver Center
Wed 09:20:13 PM 37.3456 -104.6808 86° East 518 596 35,000 49 Climbing Denver Center
Wed 09:21:15 PM 37.3544 -104.4969 86° East 523 602 35,000 -49 Level Denver Center
Wed 09:22:16 PM 37.3619 -104.3481 86° East 514 592 34,900  Descending Denver Center
Wed 09:23:18 PM 37.3725 -104.1119 87° East 508 585 35,000 48 Climbing Denver Center
Wed 09:24:20 PM 37.3803 -103.9336 87° East 507 583 35,000  Level Denver Center
Wed 09:25:21 PM 37.3875 -103.7617 87° East 502 578 35,000 -49 Level Denver Center
Wed 09:26:23 PM 37.3944 -103.5939 87° East 501 577 34,900  Descending Denver Center
Wed 09:27:24 PM 37.4017 -103.4017 87° East 495 570 35,000  Climbing Denver Center
Wed 09:28:26 PM 37.4097 -103.2367 86° East 494 568 34,900  Descending Denver Center
Wed 09:29:27 PM 37.4156 -103.0442 88° East 494 568 35,000  Climbing Denver Center
Wed 09:30:29 PM 37.4208 -102.8792 88° East 494 568 34,900  Descending Denver Center
Wed 09:31:31 PM 37.4261 -102.7158 88° East 491 565 35,000  Climbing Denver Center
Wed 09:32:44 PM 37.4319 -102.5278 88° East 485 558 34,900 -47 Descending Denver Center
Wed 09:33:39 PM 37.4372 -102.3400 88° East 482 555 34,900 52 Level Albuquerque Center
Wed 09:34:40 PM 37.4422 -102.1781 88° East 483 556 35,000 49 Climbing Albuquerque Center
Wed 09:35:41 PM 37.4469 -101.9908 88° East 481 554 35,000  Level Albuquerque Center
Wed 09:36:36 PM 37.4500 -101.8561 88° East 482 555 35,000  Level Kansas City Center
Wed 09:37:38 PM 37.4544 -101.6669 88° East 485 558 35,000  Level Kansas City Center
Wed 09:38:39 PM 37.4586 -101.5064 88° East 483 556 35,000  Level Kansas City Center
Wed 09:39:41 PM 37.4619 -101.3194 89° East 481 554 35,000  Level Kansas City Center
Wed 09:40:42 PM 37.4664 -101.1578 88° East 484 557 35,000  Level Kansas City Center
Wed 09:41:44 PM 37.4689 -100.9950 89° East 489 563 35,000  Level Kansas City Center
Wed 09:42:45 PM 37.4719 -100.8036 89° East 496 571 35,000 -49 Level Kansas City Center
Wed 09:43:47 PM 37.4753 -100.6119 89° East 498 573 34,900  Descending Kansas City Center
Wed 09:44:48 PM 37.4772 -100.4486 89° East 493 567 35,000 49 Climbing Kansas City Center
Wed 09:45:50 PM 37.4664 -100.2847 95° East 492 566 35,000  Level Kansas City Center
Wed 09:46:51 PM 37.4589 -100.0936 93° East 491 565 35,000  Level Kansas City Center
Wed 09:47:53 PM 37.4531 -99.9356 93° East 479 551 35,000  Level Kansas City Center
Wed 09:48:54 PM 37.4361 -99.7525 97° East 474 545 35,000 -49 Level Kansas City Center
Wed 09:49:56 PM 37.4200 -99.5936 97° East 476 548 34,900  Descending Kansas City Center
Wed 09:50:57 PM 37.4064 -99.4389 96° East 475 547 35,000  Climbing Kansas City Center
Wed 09:51:58 PM 37.3978 -99.2753 94° East 471 542 34,900 -49 Descending Kansas City Center
Wed 09:53:00 PM 37.3828 -99.1158 97° East 463 533 34,900  Level Kansas City Center
Wed 09:54:01 PM 37.3839 -98.9161 90° East 470 541 34,900  Level Kansas City Center
Wed 09:55:03 PM 37.3997 -98.7511 83° East 476 548 34,900 49 Level Kansas City Center
Wed 09:56:04 PM 37.4328 -98.5889 76° East 478 550 35,000  Climbing Kansas City Center
Wed 09:57:06 PM 37.4736 -98.4333 72° East 474 545 34,900 -49 Descending Kansas City Center
Wed 09:58:07 PM 37.5139 -98.2800 72° East 470 541 34,900 49 Level Kansas City Center
Wed 09:59:08 PM 37.5736 -98.1317 63° Northeast 475 547 35,000  Climbing Kansas City Center
Wed 10:00:10 PM 37.6406 -97.9883 59° Northeast 470 541 34,900 -49 Descending Kansas City Center
Wed 10:01:11 PM 37.7200 -97.8586 52° Northeast 468 539 34,900  Level Kansas City Center
Wed 10:02:13 PM 37.8194 -97.7014 51° Northeast 474 545 34,900  Level Kansas City Center
Wed 10:03:14 PM 37.8892 -97.5597 58° Northeast 473 544 34,900  Level Kansas City Center
Wed 10:04:15 PM 37.9547 -97.4342 56° Northeast 475 547 34,900  Level Kansas City Center
Wed 10:05:17 PM 38.0236 -97.2975 57° Northeast 464 534 34,900 49 Level Kansas City Center
Wed 10:06:18 PM 38.0931 -97.1631 57° Northeast 458 527 35,000  Climbing Kansas City Center
Wed 10:07:19 PM 38.1639 -97.0242 57° Northeast 468 539 34,900 -244 Descending Kansas City Center
Wed 10:08:21 PM 38.2481 -96.8592 57° Northeast 464 534 34,500 -488 Descending Kansas City Center
Wed 10:09:22 PM 38.3172 -96.7219 57° Northeast 463 533 33,900 -295 Descending Kansas City Center
Wed 10:10:23 PM 38.3861 -96.5842 57° Northeast 462 532 33,900  Level Kansas City Center
Wed 10:11:25 PM 38.4581 -96.4406 57° Northeast 464 534 33,900 49 Level Kansas City Center
Wed 10:12:26 PM 38.5247 -96.3072 57° Northeast 465 535 34,000  Climbing Kansas City Center
Wed 10:13:27 PM 38.6019 -96.1497 58° Northeast 470 541 33,900 -49 Descending Kansas City Center
Wed 10:14:29 PM 38.6317 -95.9961 76° East 472 543 33,900 293 Level Kansas City Center
Wed 10:15:30 PM 38.6347 -95.8394 89° East 463 533 34,500 492 Climbing Kansas City Center
Wed 10:16:31 PM 38.6397 -95.6592 88° East 458 527 34,900 197 Climbing Kansas City Center
Wed 10:17:32 PM 38.6431 -95.5044 88° East 456 525 34,900  Level Kansas City Center
Wed 10:18:34 PM 38.6486 -95.3239 88° East 458 527 34,900 49 Level Kansas City Center
Wed 10:19:35 PM 38.6519 -95.1722 88° East 452 520 35,000  Climbing Kansas City Center
Wed 10:20:36 PM 38.6564 -94.9911 88° East 457 526 34,900 -49 Descending Kansas City Center
Wed 10:21:38 PM 38.6592 -94.8372 89° East 456 525 34,900 49 Level Kansas City Center
Wed 10:22:39 PM 38.6628 -94.6819 88° East 457 526 35,000 49 Climbing Kansas City Center
Wed 10:23:40 PM 38.6661 -94.4986 89° East 462 532 35,000 -49 Level Kansas City Center
Wed 10:24:41 PM 38.6681 -94.3403 89° East 465 535 34,900 -49 Descending Kansas City Center
Wed 10:25:43 PM 38.6706 -94.1572 89° East 464 534 34,900 -98 Level Kansas City Center
Wed 10:26:44 PM 38.6722 -94.0014 89° East 462 532 34,700 -541 Descending Kansas City Center
Wed 10:27:45 PM 38.6850 -93.8453 84° East 461 531 33,800 -836 Descending Kansas City Center
Wed 10:28:46 PM 38.7011 -93.6803 83° East 463 533 33,000 -393 Descending Kansas City Center
Wed 10:29:47 PM 38.7131 -93.5133 85° East 469 540 33,000  Level Kansas City Center
Wed 10:30:49 PM 38.7189 -93.3456 87° East 469 540 33,000  Level Kansas City Center
Wed 10:31:50 PM 38.7219 -93.1519 89° East 457 526 33,000  Level Kansas City Center
Wed 10:32:51 PM 38.7181 -92.9892 92° East 455 524 33,000  Level Kansas City Center
Wed 10:33:52 PM 38.7156 -92.8247 91° East 458 527 33,000 -689 Level Kansas City Center
Wed 10:34:53 PM 38.7128 -92.6619 91° East 457 526 31,600 -1,672 Descending Kansas City Center
Wed 10:35:54 PM 38.7103 -92.4947 91° East 460 529 29,600 -1,967 Descending Kansas City Center
Wed 10:36:55 PM 38.7058 -92.3261 92° East 467 537 27,600 -2,000 Descending Kansas City Center
Wed 10:37:57 PM 38.7028 -92.1686 91° East 450 518 25,500 -2,293 Descending Kansas City Center
Wed 10:38:58 PM 38.6981 -92.0197 92° East 426 490 22,900 -2,361 Descending Kansas City Center
Wed 10:39:59 PM 38.6969 -91.8764 91° East 407 468 20,700 -2,115 Descending Kansas City Center
Wed 10:41:00 PM 38.6931 -91.7397 92° East 390 449 18,600 -2,115 Descending Kansas City Center
Wed 10:42:01 PM 38.6936 -91.6075 90° East 376 433 16,400 -2,213 Descending Kansas City Center
Wed 10:43:02 PM 38.6936 -91.4797 90° East 364 419 14,100 -2,115 Descending Kansas City Center
Wed 10:44:03 PM 38.6944 -91.3497 89° East 352 405 12,100 -1,475 Descending Kansas City Center
Wed 10:45:04 PM 38.6939 -91.2286 90° East 343 395 11,100 -885 Descending Kansas City Center
Wed 10:46:05 PM 38.6947 -91.1089 89° East 339 390 10,300 -878 Descending Kansas City Center
Wed 10:47:07 PM 38.7178 -91.0072 74° East 305 351 9,300 -1,610 Descending Kansas City Center
Wed 10:48:08 PM 38.7442 -90.9125 70° East 285 328 7,000 -1,967 Descending Kansas City Center
Wed 10:49:09 PM 38.7700 -90.8228 70° East 272 313 5,300 -1,180 Descending Kansas City Center
Wed 10:50:10 PM 38.7919 -90.7442 70° East 241 277 4,600 -836 Descending Kansas City Center
Wed 10:51:11 PM 38.8114 -90.6669 72° East 232 267 3,600 -836 Descending Kansas City Center
Wed 10:52:12 PM 38.8253 -90.5917 77° East 224 258 2,900 -541 Descending Kansas City Center
Wed 10:53:13 PM 38.8142 -90.5203 101° East 194 223 2,500 -393 Descending Kansas City Center

Login

Don't have an account? Register now (free) for customized features, flight alerts, and more!